sensor_id;sensor_type;location;lat;lon;timestamp;temperature;humidity
34153;DHT22;20426;48.372;10.888;2023-04-30T00:00:06;11.70;99.90
34153;DHT22;20426;48.372;10.888;2023-04-30T00:00:39;11.70;99.90
34153;DHT22;20426;48.372;10.888;2023-04-30T00:01:09;11.70;99.90
34153;DHT22;20426;48.372;10.888;2023-04-30T00:01:40;11.70;99.90
34153;DHT22;20426;48.372;10.888;2023-04-30T00:02:11;11.70;99.90
34153;DHT22;20426;48.372;10.888;2023-04-30T00:02:42;11.70;99.90
34153;DHT22;20426;48.372;10.888;2023-04-30T00:03:12;11.70;99.90
34153;DHT22;20426;48.372;10.888;2023-04-30T00:03:43;11.70;99.90
34153;DHT22;20426;48.372;10.888;2023-04-30T00:04:14;11.70;99.90
34153;DHT22;20426;48.372;10.888;2023-04-30T00:04:45;11.70;99.90
34153;DHT22;20426;48.372;10.888;2023-04-30T00:05:15;11.70;99.90
34153;DHT22;20426;48.372;10.888;2023-04-30T00:05:49;11.70;99.90
34153;DHT22;20426;48.372;10.888;2023-04-30T00:06:21;11.70;99.90
34153;DHT22;20426;48.372;10.888;2023-04-30T00:06:51;11.70;99.90
34153;DHT22;20426;48.372;10.888;2023-04-30T00:07:22;11.70;99.90
34153;DHT22;20426;48.372;10.888;2023-04-30T00:07:53;11.70;99.90
34153;DHT22;20426;48.372;10.888;2023-04-30T00:08:24;11.70;99.90
34153;DHT22;20426;48.372;10.888;2023-04-30T00:08:54;11.70;99.90
34153;DHT22;20426;48.372;10.888;2023-04-30T00:09:25;11.70;99.90
34153;DHT22;20426;48.372;10.888;2023-04-30T00:09:56;11.70;99.90
34153;DHT22;20426;48.372;10.888;2023-04-30T00:10:27;11.70;99.90
34153;DHT22;20426;48.372;10.888;2023-04-30T00:10:57;11.70;99.90
34153;DHT22;20426;48.372;10.888;2023-04-30T00:11:28;11.70;99.90
34153;DHT22;20426;48.372;10.888;2023-04-30T00:11:59;11.70;99.90
34153;DHT22;20426;48.372;10.888;2023-04-30T00:12:30;11.70;99.90
34153;DHT22;20426;48.372;10.888;2023-04-30T00:13:00;11.70;99.90
34153;DHT22;20426;48.372;10.888;2023-04-30T00:13:31;11.70;99.90
34153;DHT22;20426;48.372;10.888;2023-04-30T00:14:01;11.70;99.90
34153;DHT22;20426;48.372;10.888;2023-04-30T00:14:32;11.70;99.90
34153;DHT22;20426;48.372;10.888;2023-04-30T00:15:03;11.70;99.90
34153;DHT22;20426;48.372;10.888;2023-04-30T00:15:34;11.70;99.90
34153;DHT22;20426;48.372;10.888;2023-04-30T00:16:05;11.60;99.90
34153;DHT22;20426;48.372;10.888;2023-04-30T00:16:36;11.60;99.90
34153;DHT22;20426;48.372;10.888;2023-04-30T00:17:07;11.60;99.90
34153;DHT22;20426;48.372;10.888;2023-04-30T00:17:37;11.60;99.90
34153;DHT22;20426;48.372;10.888;2023-04-30T00:18:08;11.70;99.90
34153;DHT22;20426;48.372;10.888;2023-04-30T00:18:39;11.70;99.90
34153;DHT22;20426;48.372;10.888;2023-04-30T00:19:10;11.70;99.90
34153;DHT22;20426;48.372;10.888;2023-04-30T00:19:41;11.60;99.90
34153;DHT22;20426;48.372;10.888;2023-04-30T00:20:12;11.60;99.90
34153;DHT22;20426;48.372;10.888;2023-04-30T00:20:43;11.60;99.90
34153;DHT22;20426;48.372;10.888;2023-04-30T00:21:13;11.60;99.90
34153;DHT22;20426;48.372;10.888;2023-04-30T00:21:44;11.60;99.90
34153;DHT22;20426;48.372;10.888;2023-04-30T00:22:15;11.60;99.90
34153;DHT22;20426;48.372;10.888;2023-04-30T00:22:46;11.60;99.90
34153;DHT22;20426;48.372;10.888;2023-04-30T00:23:16;11.60;99.90
34153;DHT22;20426;48.372;10.888;2023-04-30T00:23:47;11.60;99.90
34153;DHT22;20426;48.372;10.888;2023-04-30T00:24:18;11.60;99.90
34153;DHT22;20426;48.372;10.888;2023-04-30T00:24:48;11.60;99.90
34153;DHT22;20426;48.372;10.888;2023-04-30T00:25:19;11.50;99.90
34153;DHT22;20426;48.372;10.888;2023-04-30T00:25:50;11.60;99.90
34153;DHT22;20426;48.372;10.888;2023-04-30T00:26:21;11.50;99.90
34153;DHT22;20426;48.372;10.888;2023-04-30T00:26:51;11.50;99.90
34153;DHT22;20426;48.372;10.888;2023-04-30T00:27:22;11.50;99.90
34153;DHT22;20426;48.372;10.888;2023-04-30T00:27:53;11.50;99.90
34153;DHT22;20426;48.372;10.888;2023-04-30T00:28:23;11.50;99.90
34153;DHT22;20426;48.372;10.888;2023-04-30T00:28:54;11.50;99.90
34153;DHT22;20426;48.372;10.888;2023-04-30T00:29:25;11.50;99.90
34153;DHT22;20426;48.372;10.888;2023-04-30T00:29:56;11.50;99.90
34153;DHT22;20426;48.372;10.888;2023-04-30T00:30:27;11.50;99.90
34153;DHT22;20426;48.372;10.888;2023-04-30T00:30:57;11.60;99.90
34153;DHT22;20426;48.372;10.888;2023-04-30T00:31:28;11.50;99.90
34153;DHT22;20426;48.372;10.888;2023-04-30T00:31:59;11.50;99.90
34153;DHT22;20426;48.372;10.888;2023-04-30T00:32:29;11.50;99.90
34153;DHT22;20426;48.372;10.888;2023-04-30T00:33:00;11.50;99.90
34153;DHT22;20426;48.372;10.888;2023-04-30T00:33:31;11.50;99.90
34153;DHT22;20426;48.372;10.888;2023-04-30T00:34:02;11.50;99.90
34153;DHT22;20426;48.372;10.888;2023-04-30T00:34:33;11.50;99.90
34153;DHT22;20426;48.372;10.888;2023-04-30T00:35:04;11.50;99.90
34153;DHT22;20426;48.372;10.888;2023-04-30T00:35:34;11.50;99.90
34153;DHT22;20426;48.372;10.888;2023-04-30T00:36:05;11.50;99.90
34153;DHT22;20426;48.372;10.888;2023-04-30T00:36:36;11.50;99.90
34153;DHT22;20426;48.372;10.888;2023-04-30T00:37:07;11.50;99.90
34153;DHT22;20426;48.372;10.888;2023-04-30T00:37:37;11.50;99.90
34153;DHT22;20426;48.372;10.888;2023-04-30T00:38:08;11.50;99.90
34153;DHT22;20426;48.372;10.888;2023-04-30T00:38:39;11.40;99.90
34153;DHT22;20426;48.372;10.888;2023-04-30T00:39:09;11.40;99.90
34153;DHT22;20426;48.372;10.888;2023-04-30T00:39:40;11.40;99.90
34153;DHT22;20426;48.372;10.888;2023-04-30T00:40:11;11.40;99.90
34153;DHT22;20426;48.372;10.888;2023-04-30T00:40:42;11.40;99.90
34153;DHT22;20426;48.372;10.888;2023-04-30T00:41:13;11.40;99.90
34153;DHT22;20426;48.372;10.888;2023-04-30T00:41:44;11.40;99.90
34153;DHT22;20426;48.372;10.888;2023-04-30T00:42:15;11.40;99.90
34153;DHT22;20426;48.372;10.888;2023-04-30T00:42:46;11.40;99.90
34153;DHT22;20426;48.372;10.888;2023-04-30T00:43:18;11.50;99.90
34153;DHT22;20426;48.372;10.888;2023-04-30T00:43:48;11.50;99.90
34153;DHT22;20426;48.372;10.888;2023-04-30T00:44:19;11.50;99.90
34153;DHT22;20426;48.372;10.888;2023-04-30T00:44:50;11.50;99.90
34153;DHT22;20426;48.372;10.888;2023-04-30T00:45:21;11.50;99.90
34153;DHT22;20426;48.372;10.888;2023-04-30T00:45:52;11.50;99.90
34153;DHT22;20426;48.372;10.888;2023-04-30T00:46:23;11.50;99.90
34153;DHT22;20426;48.372;10.888;2023-04-30T00:46:54;11.50;99.90
34153;DHT22;20426;48.372;10.888;2023-04-30T00:47:25;11.50;99.90
34153;DHT22;20426;48.372;10.888;2023-04-30T00:47:55;11.50;99.90
34153;DHT22;20426;48.372;10.888;2023-04-30T00:48:26;11.50;99.90
34153;DHT22;20426;48.372;10.888;2023-04-30T00:48:57;11.50;99.90
34153;DHT22;20426;48.372;10.888;2023-04-30T00:49:29;11.50;99.90
34153;DHT22;20426;48.372;10.888;2023-04-30T00:50:00;11.50;99.90
34153;DHT22;20426;48.372;10.888;2023-04-30T00:50:31;11.50;99.90
34153;DHT22;20426;48.372;10.888;2023-04-30T00:51:02;11.50;99.90
34153;DHT22;20426;48.372;10.888;2023-04-30T00:51:34;11.50;99.90
34153;DHT22;20426;48.372;10.888;2023-04-30T00:52:05;11.50;99.90
34153;DHT22;20426;48.372;10.888;2023-04-30T00:52:36;11.50;99.90
34153;DHT22;20426;48.372;10.888;2023-04-30T00:53:07;11.50;99.90
34153;DHT22;20426;48.372;10.888;2023-04-30T00:53:39;11.50;99.90
34153;DHT22;20426;48.372;10.888;2023-04-30T00:54:10;11.50;99.90
34153;DHT22;20426;48.372;10.888;2023-04-30T00:54:41;11.50;99.90
34153;DHT22;20426;48.372;10.888;2023-04-30T00:55:12;11.50;99.90
34153;DHT22;20426;48.372;10.888;2023-04-30T00:55:43;11.50;99.90
34153;DHT22;20426;48.372;10.888;2023-04-30T00:56:14;11.50;99.90
34153;DHT22;20426;48.372;10.888;2023-04-30T00:56:48;11.50;99.90
34153;DHT22;20426;48.372;10.888;2023-04-30T00:57:19;11.50;99.90
34153;DHT22;20426;48.372;10.888;2023-04-30T00:57:51;11.50;99.90
34153;DHT22;20426;48.372;10.888;2023-04-30T00:58:22;11.50;99.90
34153;DHT22;20426;48.372;10.888;2023-04-30T00:58:52;11.50;99.90
34153;DHT22;20426;48.372;10.888;2023-04-30T00:59:26;11.50;99.90
34153;DHT22;20426;48.372;10.888;2023-04-30T00:59:59;11.40;99.90
34153;DHT22;20426;48.372;10.888;2023-04-30T01:00:30;11.40;99.90
34153;DHT22;20426;48.372;10.888;2023-04-30T01:01:02;11.40;99.90
34153;DHT22;20426;48.372;10.888;2023-04-30T01:01:33;11.40;99.90
34153;DHT22;20426;48.372;10.888;2023-04-30T01:02:04;11.40;99.90
34153;DHT22;20426;48.372;10.888;2023-04-30T01:02:35;11.40;99.90
34153;DHT22;20426;48.372;10.888;2023-04-30T01:03:06;11.40;99.90
34153;DHT22;20426;48.372;10.888;2023-04-30T01:03:37;11.40;99.90
34153;DHT22;20426;48.372;10.888;2023-04-30T01:04:08;11.40;99.90
34153;DHT22;20426;48.372;10.888;2023-04-30T01:04:40;11.40;99.90
34153;DHT22;20426;48.372;10.888;2023-04-30T01:05:11;11.30;99.90
34153;DHT22;20426;48.372;10.888;2023-04-30T01:05:42;11.30;99.90
34153;DHT22;20426;48.372;10.888;2023-04-30T01:06:12;11.30;99.90
34153;DHT22;20426;48.372;10.888;2023-04-30T01:06:43;11.30;99.90
34153;DHT22;20426;48.372;10.888;2023-04-30T01:07:16;11.30;99.90
34153;DHT22;20426;48.372;10.888;2023-04-30T01:07:46;11.30;99.90
34153;DHT22;20426;48.372;10.888;2023-04-30T01:08:17;11.30;99.90
34153;DHT22;20426;48.372;10.888;2023-04-30T01:08:48;11.30;99.90
34153;DHT22;20426;48.372;10.888;2023-04-30T01:09:19;11.20;99.90
34153;DHT22;20426;48.372;10.888;2023-04-30T01:09:50;11.30;99.90
34153;DHT22;20426;48.372;10.888;2023-04-30T01:10:22;11.20;99.90
34153;DHT22;20426;48.372;10.888;2023-04-30T01:12:20;11.20;99.90
34153;DHT22;20426;48.372;10.888;2023-04-30T01:13:02;11.30;99.90
34153;DHT22;20426;48.372;10.888;2023-04-30T01:13:53;11.20;99.90
34153;DHT22;20426;48.372;10.888;2023-04-30T01:14:46;11.20;99.90
34153;DHT22;20426;48.372;10.888;2023-04-30T01:15:32;11.20;99.90
34153;DHT22;20426;48.372;10.888;2023-04-30T01:16:09;11.20;99.90
34153;DHT22;20426;48.372;10.888;2023-04-30T01:16:50;11.20;99.90
34153;DHT22;20426;48.372;10.888;2023-04-30T01:18:10;11.10;99.90
34153;DHT22;20426;48.372;10.888;2023-04-30T01:18:54;11.10;99.90
34153;DHT22;20426;48.372;10.888;2023-04-30T01:19:41;11.10;99.90
34153;DHT22;20426;48.372;10.888;2023-04-30T01:20:12;11.10;99.90
34153;DHT22;20426;48.372;10.888;2023-04-30T01:20:48;11.10;99.90
34153;DHT22;20426;48.372;10.888;2023-04-30T01:21:20;11.20;99.90
34153;DHT22;20426;48.372;10.888;2023-04-30T01:21:51;11.10;99.90
34153;DHT22;20426;48.372;10.888;2023-04-30T01:23:17;11.20;99.90
34153;DHT22;20426;48.372;10.888;2023-04-30T01:25:05;11.20;99.90
34153;DHT22;20426;48.372;10.888;2023-04-30T01:28:24;11.00;99.90
34153;DHT22;20426;48.372;10.888;2023-04-30T01:28:59;11.00;99.90
34153;DHT22;20426;48.372;10.888;2023-04-30T01:29:33;11.00;99.90
34153;DHT22;20426;48.372;10.888;2023-04-30T01:30:06;11.00;99.90
34153;DHT22;20426;48.372;10.888;2023-04-30T01:30:38;11.00;99.90
34153;DHT22;20426;48.372;10.888;2023-04-30T01:31:13;11.00;99.90
34153;DHT22;20426;48.372;10.888;2023-04-30T01:31:44;11.00;99.90
34153;DHT22;20426;48.372;10.888;2023-04-30T01:32:15;11.10;99.90
34153;DHT22;20426;48.372;10.888;2023-04-30T01:32:46;11.10;99.90
34153;DHT22;20426;48.372;10.888;2023-04-30T01:33:16;11.10;99.90
34153;DHT22;20426;48.372;10.888;2023-04-30T01:33:47;11.10;99.90
34153;DHT22;20426;48.372;10.888;2023-04-30T01:34:18;11.10;99.90
34153;DHT22;20426;48.372;10.888;2023-04-30T01:34:48;11.10;99.90
34153;DHT22;20426;48.372;10.888;2023-04-30T01:35:19;11.10;99.90
34153;DHT22;20426;48.372;10.888;2023-04-30T01:37:04;11.10;99.90
34153;DHT22;20426;48.372;10.888;2023-04-30T01:37:54;11.10;99.90
34153;DHT22;20426;48.372;10.888;2023-04-30T01:40:42;11.20;99.90
34153;DHT22;20426;48.372;10.888;2023-04-30T01:41:36;11.20;99.90
34153;DHT22;20426;48.372;10.888;2023-04-30T01:42:19;11.10;99.90
34153;DHT22;20426;48.372;10.888;2023-04-30T01:43:00;11.10;99.90
34153;DHT22;20426;48.372;10.888;2023-04-30T01:46:54;11.00;99.90
34153;DHT22;20426;48.372;10.888;2023-04-30T01:47:40;11.00;99.90
34153;DHT22;20426;48.372;10.888;2023-04-30T01:48:59;11.00;99.90
34153;DHT22;20426;48.372;10.888;2023-04-30T01:49:50;11.00;99.90
34153;DHT22;20426;48.372;10.888;2023-04-30T01:50:29;11.00;99.90
34153;DHT22;20426;48.372;10.888;2023-04-30T01:51:37;11.00;99.90
34153;DHT22;20426;48.372;10.888;2023-04-30T01:52:52;11.00;99.90
34153;DHT22;20426;48.372;10.888;2023-04-30T01:53:32;11.00;99.90
34153;DHT22;20426;48.372;10.888;2023-04-30T01:54:29;11.00;99.90
34153;DHT22;20426;48.372;10.888;2023-04-30T01:56:36;10.90;99.90
34153;DHT22;20426;48.372;10.888;2023-04-30T01:58:24;11.00;99.90
34153;DHT22;20426;48.372;10.888;2023-04-30T01:58:56;11.00;99.90
34153;DHT22;20426;48.372;10.888;2023-04-30T01:59:27;11.00;99.90
34153;DHT22;20426;48.372;10.888;2023-04-30T01:59:59;11.00;99.90
34153;DHT22;20426;48.372;10.888;2023-04-30T02:00:30;11.00;99.90
34153;DHT22;20426;48.372;10.888;2023-04-30T02:01:02;11.00;99.90
34153;DHT22;20426;48.372;10.888;2023-04-30T02:01:33;11.00;99.90
34153;DHT22;20426;48.372;10.888;2023-04-30T02:02:05;11.00;99.90
34153;DHT22;20426;48.372;10.888;2023-04-30T02:02:36;11.00;99.90
34153;DHT22;20426;48.372;10.888;2023-04-30T02:03:07;11.00;99.90
34153;DHT22;20426;48.372;10.888;2023-04-30T02:03:38;11.00;99.90
34153;DHT22;20426;48.372;10.888;2023-04-30T02:04:09;10.90;99.90
34153;DHT22;20426;48.372;10.888;2023-04-30T02:04:40;10.90;99.90
34153;DHT22;20426;48.372;10.888;2023-04-30T02:05:11;10.90;99.90
34153;DHT22;20426;48.372;10.888;2023-04-30T02:05:41;10.90;99.90
34153;DHT22;20426;48.372;10.888;2023-04-30T02:06:12;10.90;99.90
34153;DHT22;20426;48.372;10.888;2023-04-30T02:06:43;10.90;99.90
34153;DHT22;20426;48.372;10.888;2023-04-30T02:07:30;10.90;99.90
34153;DHT22;20426;48.372;10.888;2023-04-30T02:08:07;10.90;99.90
34153;DHT22;20426;48.372;10.888;2023-04-30T02:08:38;10.90;99.90
34153;DHT22;20426;48.372;10.888;2023-04-30T02:09:10;10.90;99.90
34153;DHT22;20426;48.372;10.888;2023-04-30T02:09:41;10.90;99.90
34153;DHT22;20426;48.372;10.888;2023-04-30T02:10:11;10.90;99.90
34153;DHT22;20426;48.372;10.888;2023-04-30T02:10:42;10.90;99.90
34153;DHT22;20426;48.372;10.888;2023-04-30T02:11:13;10.90;99.90
34153;DHT22;20426;48.372;10.888;2023-04-30T02:11:44;10.90;99.90
34153;DHT22;20426;48.372;10.888;2023-04-30T02:12:14;10.80;99.90
34153;DHT22;20426;48.372;10.888;2023-04-30T02:12:45;10.80;99.90
34153;DHT22;20426;48.372;10.888;2023-04-30T02:13:16;10.90;99.90
34153;DHT22;20426;48.372;10.888;2023-04-30T02:13:47;10.80;99.90
34153;DHT22;20426;48.372;10.888;2023-04-30T02:14:18;10.80;99.90
34153;DHT22;20426;48.372;10.888;2023-04-30T02:14:49;10.80;99.90
34153;DHT22;20426;48.372;10.888;2023-04-30T02:15:20;10.80;99.90
34153;DHT22;20426;48.372;10.888;2023-04-30T02:15:50;10.80;99.90
34153;DHT22;20426;48.372;10.888;2023-04-30T02:16:22;10.80;99.90
34153;DHT22;20426;48.372;10.888;2023-04-30T02:16:54;10.90;99.90
34153;DHT22;20426;48.372;10.888;2023-04-30T02:17:26;10.80;99.90
34153;DHT22;20426;48.372;10.888;2023-04-30T02:17:57;10.90;99.90
34153;DHT22;20426;48.372;10.888;2023-04-30T02:18:28;10.80;99.90
34153;DHT22;20426;48.372;10.888;2023-04-30T02:18:59;10.80;99.90
34153;DHT22;20426;48.372;10.888;2023-04-30T02:19:30;10.90;99.90
34153;DHT22;20426;48.372;10.888;2023-04-30T02:20:00;10.90;99.90
34153;DHT22;20426;48.372;10.888;2023-04-30T02:20:31;10.90;99.90
34153;DHT22;20426;48.372;10.888;2023-04-30T02:21:02;10.90;99.90
34153;DHT22;20426;48.372;10.888;2023-04-30T02:21:33;10.90;99.90
34153;DHT22;20426;48.372;10.888;2023-04-30T02:22:04;10.80;99.90
34153;DHT22;20426;48.372;10.888;2023-04-30T02:22:35;10.80;99.90
34153;DHT22;20426;48.372;10.888;2023-04-30T02:23:06;10.80;99.90
34153;DHT22;20426;48.372;10.888;2023-04-30T02:23:39;10.80;99.90
34153;DHT22;20426;48.372;10.888;2023-04-30T02:24:11;10.80;99.90
34153;DHT22;20426;48.372;10.888;2023-04-30T02:24:42;10.80;99.90
34153;DHT22;20426;48.372;10.888;2023-04-30T02:25:13;10.80;99.90
34153;DHT22;20426;48.372;10.888;2023-04-30T02:25:44;10.80;99.90
34153;DHT22;20426;48.372;10.888;2023-04-30T02:26:14;10.80;99.90
34153;DHT22;20426;48.372;10.888;2023-04-30T02:26:45;10.80;99.90
34153;DHT22;20426;48.372;10.888;2023-04-30T02:27:16;10.80;99.90
34153;DHT22;20426;48.372;10.888;2023-04-30T02:27:48;10.80;99.90
34153;DHT22;20426;48.372;10.888;2023-04-30T02:28:19;10.80;99.90
34153;DHT22;20426;48.372;10.888;2023-04-30T02:28:51;10.80;99.90
34153;DHT22;20426;48.372;10.888;2023-04-30T02:29:21;10.80;99.90
34153;DHT22;20426;48.372;10.888;2023-04-30T02:29:52;10.80;99.90
34153;DHT22;20426;48.372;10.888;2023-04-30T02:30:24;10.80;99.90
34153;DHT22;20426;48.372;10.888;2023-04-30T02:30:56;10.80;99.90
34153;DHT22;20426;48.372;10.888;2023-04-30T02:31:27;10.80;99.90
34153;DHT22;20426;48.372;10.888;2023-04-30T02:31:58;10.80;99.90
34153;DHT22;20426;48.372;10.888;2023-04-30T02:32:29;10.80;99.90
34153;DHT22;20426;48.372;10.888;2023-04-30T02:33:00;10.80;99.90
34153;DHT22;20426;48.372;10.888;2023-04-30T02:33:32;10.80;99.90
34153;DHT22;20426;48.372;10.888;2023-04-30T02:34:03;10.80;99.90
34153;DHT22;20426;48.372;10.888;2023-04-30T02:34:34;10.80;99.90
34153;DHT22;20426;48.372;10.888;2023-04-30T02:35:05;10.80;99.90
34153;DHT22;20426;48.372;10.888;2023-04-30T02:35:35;10.80;99.90
34153;DHT22;20426;48.372;10.888;2023-04-30T02:36:06;10.80;99.90
34153;DHT22;20426;48.372;10.888;2023-04-30T02:36:38;10.80;99.90
34153;DHT22;20426;48.372;10.888;2023-04-30T02:37:09;10.80;99.90
34153;DHT22;20426;48.372;10.888;2023-04-30T02:37:40;10.70;99.90
34153;DHT22;20426;48.372;10.888;2023-04-30T02:38:11;10.70;99.90
34153;DHT22;20426;48.372;10.888;2023-04-30T02:38:42;10.70;99.90
34153;DHT22;20426;48.372;10.888;2023-04-30T02:39:12;10.80;99.90
34153;DHT22;20426;48.372;10.888;2023-04-30T02:39:43;10.80;99.90
34153;DHT22;20426;48.372;10.888;2023-04-30T02:40:14;10.80;99.90
34153;DHT22;20426;48.372;10.888;2023-04-30T02:40:44;10.80;99.90
34153;DHT22;20426;48.372;10.888;2023-04-30T02:41:15;10.70;99.90
34153;DHT22;20426;48.372;10.888;2023-04-30T02:41:46;10.70;99.90
34153;DHT22;20426;48.372;10.888;2023-04-30T02:42:16;10.70;99.90
34153;DHT22;20426;48.372;10.888;2023-04-30T02:42:47;10.80;99.90
34153;DHT22;20426;48.372;10.888;2023-04-30T02:43:18;10.70;99.90
34153;DHT22;20426;48.372;10.888;2023-04-30T02:43:49;10.80;99.90
34153;DHT22;20426;48.372;10.888;2023-04-30T02:44:21;10.80;99.90
34153;DHT22;20426;48.372;10.888;2023-04-30T02:44:51;10.70;99.90
34153;DHT22;20426;48.372;10.888;2023-04-30T02:45:24;10.70;99.90
34153;DHT22;20426;48.372;10.888;2023-04-30T02:45:54;10.70;99.90
34153;DHT22;20426;48.372;10.888;2023-04-30T02:46:25;10.70;99.90
34153;DHT22;20426;48.372;10.888;2023-04-30T02:46:56;10.80;99.90
34153;DHT22;20426;48.372;10.888;2023-04-30T02:47:27;10.80;99.90
34153;DHT22;20426;48.372;10.888;2023-04-30T02:47:57;10.80;99.90
34153;DHT22;20426;48.372;10.888;2023-04-30T02:48:28;10.80;99.90
34153;DHT22;20426;48.372;10.888;2023-04-30T02:48:59;10.80;99.90
34153;DHT22;20426;48.372;10.888;2023-04-30T02:49:30;10.80;99.90
34153;DHT22;20426;48.372;10.888;2023-04-30T02:50:01;10.80;99.90
34153;DHT22;20426;48.372;10.888;2023-04-30T02:50:31;10.80;99.90
34153;DHT22;20426;48.372;10.888;2023-04-30T02:51:02;10.80;99.90
34153;DHT22;20426;48.372;10.888;2023-04-30T02:51:34;10.80;99.90
34153;DHT22;20426;48.372;10.888;2023-04-30T02:52:04;10.70;99.90
34153;DHT22;20426;48.372;10.888;2023-04-30T02:52:36;10.70;99.90
34153;DHT22;20426;48.372;10.888;2023-04-30T02:53:07;10.70;99.90
34153;DHT22;20426;48.372;10.888;2023-04-30T02:53:38;10.70;99.90
34153;DHT22;20426;48.372;10.888;2023-04-30T02:54:09;10.70;99.90
34153;DHT22;20426;48.372;10.888;2023-04-30T02:54:39;10.60;99.90
34153;DHT22;20426;48.372;10.888;2023-04-30T02:55:10;10.70;99.90
34153;DHT22;20426;48.372;10.888;2023-04-30T02:55:41;10.70;99.90
34153;DHT22;20426;48.372;10.888;2023-04-30T02:56:12;10.70;99.90
34153;DHT22;20426;48.372;10.888;2023-04-30T02:56:43;10.70;99.90
34153;DHT22;20426;48.372;10.888;2023-04-30T02:57:14;10.70;99.90
34153;DHT22;20426;48.372;10.888;2023-04-30T02:57:44;10.70;99.90
34153;DHT22;20426;48.372;10.888;2023-04-30T02:58:15;10.70;99.90
34153;DHT22;20426;48.372;10.888;2023-04-30T02:58:46;10.70;99.90
34153;DHT22;20426;48.372;10.888;2023-04-30T02:59:17;10.70;99.90
34153;DHT22;20426;48.372;10.888;2023-04-30T02:59:47;10.70;99.90
34153;DHT22;20426;48.372;10.888;2023-04-30T03:00:18;10.70;99.90
34153;DHT22;20426;48.372;10.888;2023-04-30T03:00:49;10.60;99.90
34153;DHT22;20426;48.372;10.888;2023-04-30T03:01:20;10.60;99.90
34153;DHT22;20426;48.372;10.888;2023-04-30T03:01:50;10.60;99.90
34153;DHT22;20426;48.372;10.888;2023-04-30T03:02:21;10.60;99.90
34153;DHT22;20426;48.372;10.888;2023-04-30T03:02:53;10.60;99.90
34153;DHT22;20426;48.372;10.888;2023-04-30T03:03:24;10.60;99.90
34153;DHT22;20426;48.372;10.888;2023-04-30T03:03:56;10.60;99.90
34153;DHT22;20426;48.372;10.888;2023-04-30T03:04:29;10.60;99.90
34153;DHT22;20426;48.372;10.888;2023-04-30T03:04:59;10.70;99.90
34153;DHT22;20426;48.372;10.888;2023-04-30T03:05:30;10.70;99.90
34153;DHT22;20426;48.372;10.888;2023-04-30T03:06:01;10.70;99.90
34153;DHT22;20426;48.372;10.888;2023-04-30T03:06:32;10.60;99.90
34153;DHT22;20426;48.372;10.888;2023-04-30T03:07:04;10.60;99.90
34153;DHT22;20426;48.372;10.888;2023-04-30T03:07:47;10.60;99.90
34153;DHT22;20426;48.372;10.888;2023-04-30T03:08:18;10.60;99.90
34153;DHT22;20426;48.372;10.888;2023-04-30T03:08:48;10.60;99.90
34153;DHT22;20426;48.372;10.888;2023-04-30T03:09:20;10.60;99.90
34153;DHT22;20426;48.372;10.888;2023-04-30T03:09:51;10.60;99.90
34153;DHT22;20426;48.372;10.888;2023-04-30T03:10:22;10.60;99.90
34153;DHT22;20426;48.372;10.888;2023-04-30T03:10:52;10.60;99.90
34153;DHT22;20426;48.372;10.888;2023-04-30T03:11:23;10.60;99.90
34153;DHT22;20426;48.372;10.888;2023-04-30T03:11:54;10.60;99.90
34153;DHT22;20426;48.372;10.888;2023-04-30T03:12:24;10.50;99.90
34153;DHT22;20426;48.372;10.888;2023-04-30T03:12:55;10.50;99.90
34153;DHT22;20426;48.372;10.888;2023-04-30T03:13:26;10.50;99.90
34153;DHT22;20426;48.372;10.888;2023-04-30T03:13:57;10.50;99.90
34153;DHT22;20426;48.372;10.888;2023-04-30T03:14:28;10.50;99.90
34153;DHT22;20426;48.372;10.888;2023-04-30T03:15:00;10.50;99.90
34153;DHT22;20426;48.372;10.888;2023-04-30T03:15:32;10.50;99.90
34153;DHT22;20426;48.372;10.888;2023-04-30T03:16:03;10.50;99.90
34153;DHT22;20426;48.372;10.888;2023-04-30T03:16:35;10.50;99.90
34153;DHT22;20426;48.372;10.888;2023-04-30T03:17:06;10.50;99.90
34153;DHT22;20426;48.372;10.888;2023-04-30T03:17:37;10.50;99.90
34153;DHT22;20426;48.372;10.888;2023-04-30T03:18:09;10.50;99.90
34153;DHT22;20426;48.372;10.888;2023-04-30T03:18:40;10.50;99.90
34153;DHT22;20426;48.372;10.888;2023-04-30T03:19:10;10.50;99.90
34153;DHT22;20426;48.372;10.888;2023-04-30T03:19:42;10.50;99.90
34153;DHT22;20426;48.372;10.888;2023-04-30T03:20:12;10.50;99.90
34153;DHT22;20426;48.372;10.888;2023-04-30T03:20:43;10.50;99.90
34153;DHT22;20426;48.372;10.888;2023-04-30T03:21:14;10.50;99.90
34153;DHT22;20426;48.372;10.888;2023-04-30T03:21:45;10.50;99.90
34153;DHT22;20426;48.372;10.888;2023-04-30T03:22:16;10.50;99.90
34153;DHT22;20426;48.372;10.888;2023-04-30T03:22:49;10.40;99.90
34153;DHT22;20426;48.372;10.888;2023-04-30T03:23:20;10.50;99.90
34153;DHT22;20426;48.372;10.888;2023-04-30T03:23:51;10.50;99.90
34153;DHT22;20426;48.372;10.888;2023-04-30T03:24:22;10.40;99.90
34153;DHT22;20426;48.372;10.888;2023-04-30T03:24:53;10.40;99.90
34153;DHT22;20426;48.372;10.888;2023-04-30T03:25:24;10.50;99.90
34153;DHT22;20426;48.372;10.888;2023-04-30T03:25:54;10.50;99.90
34153;DHT22;20426;48.372;10.888;2023-04-30T03:26:25;10.50;99.90
34153;DHT22;20426;48.372;10.888;2023-04-30T03:26:58;10.50;99.90
34153;DHT22;20426;48.372;10.888;2023-04-30T03:27:28;10.50;99.90
34153;DHT22;20426;48.372;10.888;2023-04-30T03:27:59;10.50;99.90
34153;DHT22;20426;48.372;10.888;2023-04-30T03:28:30;10.50;99.90
34153;DHT22;20426;48.372;10.888;2023-04-30T03:29:00;10.50;99.90
34153;DHT22;20426;48.372;10.888;2023-04-30T03:29:31;10.50;99.90
34153;DHT22;20426;48.372;10.888;2023-04-30T03:30:03;10.50;99.90
34153;DHT22;20426;48.372;10.888;2023-04-30T03:30:38;10.50;99.90
34153;DHT22;20426;48.372;10.888;2023-04-30T03:31:08;10.50;99.90
34153;DHT22;20426;48.372;10.888;2023-04-30T03:31:39;10.50;99.90
34153;DHT22;20426;48.372;10.888;2023-04-30T03:32:10;10.50;99.90
34153;DHT22;20426;48.372;10.888;2023-04-30T03:32:41;10.50;99.90
34153;DHT22;20426;48.372;10.888;2023-04-30T03:33:12;10.50;99.90
34153;DHT22;20426;48.372;10.888;2023-04-30T03:33:43;10.40;99.90
34153;DHT22;20426;48.372;10.888;2023-04-30T03:34:13;10.40;99.90
34153;DHT22;20426;48.372;10.888;2023-04-30T03:34:44;10.40;99.90
34153;DHT22;20426;48.372;10.888;2023-04-30T03:35:15;10.40;99.90
34153;DHT22;20426;48.372;10.888;2023-04-30T03:35:46;10.40;99.90
34153;DHT22;20426;48.372;10.888;2023-04-30T03:36:18;10.40;99.90
34153;DHT22;20426;48.372;10.888;2023-04-30T03:36:49;10.40;99.90